createdAt,value
2023-05-24T00:01:00.160Z,101689.47
2023-05-24T00:03:30.713Z,101693.72
2023-05-24T00:05:57.356Z,101696.19
2023-05-24T00:08:24.134Z,101690.38
2023-05-24T00:10:50.770Z,101690.47
2023-05-24T00:13:17.643Z,101691.81
2023-05-24T00:15:44.894Z,101673.25
2023-05-24T00:18:11.374Z,101689.13
2023-05-24T00:20:38.081Z,101680.31
2023-05-24T00:23:04.743Z,101680.31
2023-05-24T00:25:31.271Z,101684.22
2023-05-24T00:27:57.776Z,101680.91
2023-05-24T00:30:25.622Z,101680.72
2023-05-24T00:32:52.269Z,101677.63
2023-05-24T00:35:18.927Z,101677.16
2023-05-24T00:37:46.436Z,101665.97
2023-05-24T00:40:15.810Z,101672.81
2023-05-24T00:42:42.938Z,101669.50
2023-05-24T00:45:10.015Z,101665.16
2023-05-24T00:47:36.811Z,101676.41
2023-05-24T00:50:03.931Z,101684.75
2023-05-24T00:52:30.823Z,101672.94
2023-05-24T00:54:58.302Z,101680.88
2023-05-24T00:57:25.142Z,101678.25
2023-05-24T00:59:52.520Z,101686.00
2023-05-24T01:02:20.871Z,101676.44
2023-05-24T01:04:48.999Z,101683.44
2023-05-24T01:07:41.934Z,101673.09
2023-05-24T01:10:08.269Z,101668.13
2023-05-24T01:12:59.554Z,101666.25
2023-05-24T01:15:46.081Z,101672.03
2023-05-24T01:18:26.212Z,101663.38
2023-05-24T01:21:06.594Z,101665.53
2023-05-24T01:23:48.151Z,101666.69
2023-05-24T01:26:21.353Z,101660.44
2023-05-24T01:28:48.690Z,101661.22
2023-05-24T01:31:16.997Z,101652.78
2023-05-24T01:33:44.522Z,101655.72
2023-05-24T01:36:11.569Z,101654.78
2023-05-24T01:38:40.526Z,101646.91
2023-05-24T01:41:27.126Z,101647.88
2023-05-24T01:44:07.407Z,101651.25
2023-05-24T01:46:37.499Z,101647.44
2023-05-24T01:49:18.226Z,101645.09
2023-05-24T01:51:48.845Z,101645.84
2023-05-24T01:54:20.208Z,101651.72
2023-05-24T01:56:48.655Z,101634.09
2023-05-24T01:59:15.360Z,101641.63
2023-05-24T02:01:42.198Z,101636.47
2023-05-24T02:04:08.770Z,101635.53
2023-05-24T02:06:35.954Z,101636.59
2023-05-24T02:09:02.406Z,101634.34
2023-05-24T02:11:28.962Z,101632.25
2023-05-24T02:13:55.728Z,101628.31
2023-05-24T02:16:26.563Z,101629.91
2023-05-24T02:18:53.452Z,101626.38
2023-05-24T02:21:19.962Z,101624.16
2023-05-24T02:23:46.435Z,101624.72
2023-05-24T02:26:13.801Z,101625.13
2023-05-24T02:28:40.663Z,101619.69
2023-05-24T02:31:08.456Z,101626.69
2023-05-24T02:33:37.350Z,101628.88
2023-05-24T02:36:04.036Z,101624.81
2023-05-24T02:38:31.868Z,101629.66
2023-05-24T02:40:58.358Z,101634.75
2023-05-24T02:43:24.914Z,101634.97
2023-05-24T02:45:51.442Z,101629.66
2023-05-24T02:48:18.155Z,101632.34
2023-05-24T02:50:44.894Z,101626.34
2023-05-24T02:53:11.848Z,101638.78
2023-05-24T02:55:38.604Z,101633.91
2023-05-24T02:58:05.091Z,101630.69
2023-05-24T03:00:33.797Z,101641.94
2023-05-24T03:03:03.105Z,101636.09
2023-05-24T03:05:30.754Z,101633.91
2023-05-24T03:07:58.420Z,101630.03
2023-05-24T03:10:25.190Z,101636.47
2023-05-24T03:12:51.724Z,101631.06
2023-05-24T03:15:18.270Z,101627.69
2023-05-24T03:17:46.172Z,101631.13
2023-05-24T03:20:13.050Z,101628.34
2023-05-24T03:22:39.529Z,101625.28
2023-05-24T03:25:08.715Z,101625.56
2023-05-24T03:27:38.662Z,101624.84
2023-05-24T03:30:06.704Z,101624.69
2023-05-24T03:32:38.709Z,101624.41
2023-05-24T03:35:05.450Z,101621.19
2023-05-24T03:37:32.886Z,101620.25
2023-05-24T03:39:59.442Z,101616.50
2023-05-24T03:42:36.424Z,101616.44
2023-05-24T03:45:04.210Z,101621.63
2023-05-24T03:47:31.250Z,101622.94
2023-05-24T03:49:58.143Z,101624.06
2023-05-24T03:52:25.123Z,101631.19
2023-05-24T03:54:51.666Z,101626.94
2023-05-24T03:57:18.309Z,101629.34
2023-05-24T03:59:46.262Z,101630.28
2023-05-24T04:02:12.781Z,101623.41
2023-05-24T04:04:39.267Z,101632.84
2023-05-24T04:07:05.717Z,101621.88
2023-05-24T04:09:32.188Z,101631.88
2023-05-24T04:11:58.746Z,101626.38
2023-05-24T04:14:25.470Z,101626.06
2023-05-24T04:16:53.634Z,101626.19
2023-05-24T04:19:20.150Z,101623.72
2023-05-24T04:21:46.737Z,101622.56
2023-05-24T04:24:13.350Z,101630.59
2023-05-24T04:26:40.191Z,101628.63
2023-05-24T04:29:07.603Z,101628.41
2023-05-24T04:31:34.994Z,101626.97
2023-05-24T04:34:02.048Z,101640.63
2023-05-24T04:36:31.314Z,101639.91
2023-05-24T04:39:02.760Z,101644.66
2023-05-24T04:41:31.894Z,101644.88
2023-05-24T04:43:59.832Z,101634.56
2023-05-24T04:46:27.435Z,101640.91
2023-05-24T04:48:54.567Z,101646.00
2023-05-24T04:51:22.806Z,101635.88
2023-05-24T04:53:49.557Z,101641.19
2023-05-24T04:56:16.946Z,101644.16
2023-05-24T04:58:43.516Z,101643.19
2023-05-24T05:01:10.062Z,101646.25
2023-05-24T05:03:36.609Z,101652.63
2023-05-24T05:06:03.280Z,101651.09
2023-05-24T05:08:31.021Z,101654.75
2023-05-24T05:10:57.747Z,101653.69
2023-05-24T05:13:24.307Z,101645.69
2023-05-24T05:15:51.606Z,101646.41
2023-05-24T05:18:18.320Z,101641.81
2023-05-24T05:20:45.162Z,101637.09
2023-05-24T05:23:11.875Z,101644.16
2023-05-24T05:25:38.309Z,101640.06
2023-05-24T05:28:04.764Z,101639.44
2023-05-24T05:30:33.021Z,101650.03
2023-05-24T05:32:59.679Z,101642.63
2023-05-24T05:35:26.375Z,101652.59
2023-05-24T05:37:52.849Z,101642.84
2023-05-24T05:40:19.292Z,101645.66
2023-05-24T05:42:47.476Z,101645.47
2023-05-24T05:45:13.926Z,101648.53
2023-05-24T05:47:41.148Z,101647.78
2023-05-24T05:50:08.031Z,101650.53
2023-05-24T05:52:34.768Z,101646.84
2023-05-24T05:55:02.934Z,101648.69
2023-05-24T05:57:29.410Z,101653.63
2023-05-24T05:59:56.038Z,101652.59
2023-05-24T06:02:23.016Z,101653.22
2023-05-24T06:04:49.930Z,101663.22
2023-05-24T06:07:16.470Z,101656.50
2023-05-24T06:09:42.938Z,101664.66
2023-05-24T06:12:09.409Z,101651.78
2023-05-24T06:14:38.375Z,101659.44
2023-05-24T06:17:08.051Z,101664.88
2023-05-24T06:19:34.541Z,101667.69
2023-05-24T06:22:01.548Z,101669.91
2023-05-24T06:24:28.715Z,101660.75
2023-05-24T06:26:55.872Z,101673.53
2023-05-24T06:29:22.781Z,101676.47
2023-05-24T06:31:50.056Z,101668.91
2023-05-24T06:34:21.083Z,101680.03
2023-05-24T06:36:48.406Z,101676.13
2023-05-24T06:39:15.940Z,101677.63
2023-05-24T06:41:44.346Z,101681.97
2023-05-24T06:44:11.006Z,101675.94
2023-05-24T06:46:37.748Z,101679.91
2023-05-24T06:49:04.438Z,101683.97
2023-05-24T06:51:31.253Z,101692.00
2023-05-24T06:53:57.711Z,101689.09
2023-05-24T06:56:24.156Z,101690.97
2023-05-24T06:58:51.060Z,101686.88
2023-05-24T07:01:18.575Z,101698.41
2023-05-24T07:03:45.114Z,101698.91
2023-05-24T07:06:14.011Z,101696.28
2023-05-24T07:08:41.927Z,101704.81
2023-05-24T07:11:09.540Z,101706.50
2023-05-24T07:13:36.128Z,101705.00
2023-05-24T07:16:02.573Z,101698.63
2023-05-24T07:18:30.212Z,101692.19
2023-05-24T07:20:56.637Z,101702.25
2023-05-24T07:23:23.391Z,101702.06
2023-05-24T07:25:49.978Z,101707.69
2023-05-24T07:28:19.919Z,101703.81
2023-05-24T07:30:46.791Z,101700.34
2023-05-24T07:33:13.871Z,101700.66
2023-05-24T07:35:40.537Z,101710.31
2023-05-24T07:38:07.642Z,101712.56
2023-05-24T07:40:34.881Z,101709.66
2023-05-24T07:43:02.240Z,101711.97
2023-05-24T07:45:29.863Z,101716.41
2023-05-24T07:47:57.066Z,101719.69
2023-05-24T07:50:23.989Z,101716.97
2023-05-24T07:52:51.307Z,101727.50
2023-05-24T07:55:17.803Z,101724.81
2023-05-24T07:57:44.242Z,101723.25
2023-05-24T08:00:14.358Z,101722.91
2023-05-24T08:02:46.552Z,101723.25
2023-05-24T08:05:13.870Z,101721.59
2023-05-24T08:07:41.650Z,101728.50
2023-05-24T08:10:10.584Z,101728.53
2023-05-24T08:12:36.986Z,101722.50
2023-05-24T08:15:04.150Z,101722.88
2023-05-24T08:17:31.671Z,101719.75
2023-05-24T08:19:58.322Z,101723.44
2023-05-24T08:22:24.911Z,101731.44
2023-05-24T08:24:52.265Z,101723.97
2023-05-24T08:27:18.900Z,101728.09
2023-05-24T08:29:45.365Z,101727.66
2023-05-24T08:32:11.871Z,101728.06
2023-05-24T08:34:38.663Z,101727.19
2023-05-24T08:37:05.423Z,101734.25
2023-05-24T08:39:31.847Z,101721.50
2023-05-24T08:42:08.683Z,101729.16
2023-05-24T08:44:41.672Z,101735.50
2023-05-24T08:47:09.117Z,101742.59
2023-05-24T08:49:38.126Z,101738.94
2023-05-24T08:52:07.455Z,101746.53
2023-05-24T08:54:37.368Z,101745.72
2023-05-24T08:57:04.546Z,101752.03
2023-05-24T08:59:31.034Z,101749.97
2023-05-24T09:01:57.863Z,101755.97
2023-05-24T09:04:26.804Z,101753.44
2023-05-24T09:06:55.084Z,101753.78
2023-05-24T09:09:24.182Z,101756.81
2023-05-24T09:11:53.684Z,101754.28
2023-05-24T09:14:20.363Z,101753.63
2023-05-24T09:16:47.151Z,101753.47
2023-05-24T09:19:14.156Z,101760.78
2023-05-24T09:21:40.798Z,101751.28
2023-05-24T09:24:08.375Z,101761.19
2023-05-24T09:26:36.626Z,101755.66
2023-05-24T09:29:07.569Z,101757.06
2023-05-24T09:31:35.596Z,101755.19
2023-05-24T09:34:02.772Z,101758.16
2023-05-24T09:36:36.722Z,101764.06
2023-05-24T09:39:10.301Z,101756.88
2023-05-24T09:41:37.372Z,101760.41
2023-05-24T09:44:04.349Z,101766.34
2023-05-24T09:46:36.295Z,101765.41
2023-05-24T09:49:07.952Z,101750.56
2023-05-24T09:51:38.242Z,101767.88
2023-05-24T09:54:05.731Z,101763.63
2023-05-24T09:56:33.788Z,101768.44
2023-05-24T09:59:08.797Z,101765.34
2023-05-24T10:01:36.249Z,101763.53
2023-05-24T10:04:09.279Z,101768.34
2023-05-24T10:06:38.505Z,101761.56
2023-05-24T10:09:06.612Z,101761.63
2023-05-24T10:11:37.516Z,101761.59
2023-05-24T10:14:08.871Z,101767.13
2023-05-24T10:16:37.987Z,101772.44
2023-05-24T10:19:05.890Z,101768.66
2023-05-24T10:21:34.050Z,101767.06
2023-05-24T10:24:02.301Z,101775.66
2023-05-24T10:26:32.697Z,101777.81
2023-05-24T10:29:05.617Z,101775.94
2023-05-24T10:31:39.344Z,101772.56
2023-05-24T10:34:09.027Z,101771.81
2023-05-24T10:36:36.957Z,101770.03
2023-05-24T10:39:03.752Z,101769.97
2023-05-24T10:41:39.001Z,101767.16
2023-05-24T10:44:11.686Z,101778.88
2023-05-24T10:47:02.191Z,101773.63
2023-05-24T10:49:28.648Z,101773.44
2023-05-24T10:52:02.908Z,101769.44
2023-05-24T10:54:30.184Z,101779.38
2023-05-24T10:57:04.387Z,101774.97
2023-05-24T10:59:34.931Z,101771.94
2023-05-24T11:02:01.988Z,101779.00
2023-05-24T11:04:33.162Z,101779.25
2023-05-24T11:07:05.326Z,101774.59
2023-05-24T11:09:33.285Z,101780.19
2023-05-24T11:12:09.807Z,101772.53
2023-05-24T11:14:42.361Z,101781.72
2023-05-24T11:17:09.400Z,101782.88
2023-05-24T11:19:38.027Z,101776.91
2023-05-24T11:22:07.858Z,101776.63
2023-05-24T11:24:35.096Z,101775.09
2023-05-24T11:27:03.646Z,101777.53
2023-05-24T11:29:30.587Z,101777.53
2023-05-24T11:32:05.537Z,101774.88
2023-05-24T11:34:32.608Z,101774.84
2023-05-24T11:37:00.467Z,101769.09
2023-05-24T11:39:32.456Z,101777.38
2023-05-24T11:42:00.302Z,101762.94
2023-05-24T11:44:31.796Z,101769.31
2023-05-24T11:46:59.744Z,101770.63
2023-05-24T11:49:26.832Z,101775.75
2023-05-24T11:51:54.995Z,101765.50
2023-05-24T11:54:22.476Z,101763.00
2023-05-24T11:56:49.088Z,101774.50
2023-05-24T11:59:24.223Z,101776.50
2023-05-24T12:01:57.796Z,101772.13
2023-05-24T12:04:24.517Z,101770.47
2023-05-24T12:06:51.078Z,101783.09
2023-05-24T12:09:18.702Z,101775.13
2023-05-24T12:11:48.475Z,101775.88
2023-05-24T12:14:17.067Z,101781.00
2023-05-24T12:16:44.648Z,101772.72
2023-05-24T12:19:32.468Z,101778.56
2023-05-24T12:22:00.766Z,101781.38
2023-05-24T12:24:28.320Z,101774.03
2023-05-24T12:27:02.007Z,101780.88
2023-05-24T12:29:34.086Z,101779.59
2023-05-24T12:32:00.929Z,101781.31
2023-05-24T12:34:27.807Z,101772.91
2023-05-24T12:36:55.786Z,101775.13
2023-05-24T12:39:24.395Z,101769.94
2023-05-24T12:41:55.944Z,101762.56
2023-05-24T12:44:29.853Z,101763.38
2023-05-24T12:46:58.157Z,101769.56
2023-05-24T12:49:26.807Z,101763.69
2023-05-24T12:51:54.966Z,101756.28
2023-05-24T12:54:26.951Z,101754.38
2023-05-24T12:56:56.330Z,101742.66
2023-05-24T12:59:24.240Z,101765.59
2023-05-24T13:01:51.924Z,101751.63
2023-05-24T13:04:20.883Z,101754.91
2023-05-24T13:06:48.462Z,101753.03
2023-05-24T13:09:17.956Z,101755.22
2023-05-24T13:11:45.332Z,101770.81
2023-05-24T13:14:12.293Z,101769.16
2023-05-24T13:16:38.816Z,101769.44
2023-05-24T13:19:05.287Z,101769.44
2023-05-24T13:21:31.969Z,101764.81
2023-05-24T13:23:58.430Z,101765.88
2023-05-24T13:26:25.537Z,101757.13
2023-05-24T13:29:21.703Z,101747.28
2023-05-24T13:31:38.822Z,101744.25
2023-05-24T13:34:05.797Z,101743.09
2023-05-24T13:36:32.535Z,101743.88
2023-05-24T13:39:13.948Z,101742.44
2023-05-24T13:41:43.046Z,101751.19
2023-05-24T13:44:10.437Z,101752.91
2023-05-24T13:46:37.753Z,101743.84
2023-05-24T13:49:05.258Z,101752.94
2023-05-24T13:51:31.942Z,101749.09
2023-05-24T13:53:58.897Z,101748.81
2023-05-24T13:56:26.014Z,101751.84
2023-05-24T13:58:53.680Z,101752.97
2023-05-24T14:01:20.685Z,101754.41
2023-05-24T14:03:47.586Z,101756.88
2023-05-24T14:06:14.096Z,101760.41
2023-05-24T14:08:40.633Z,101768.50
2023-05-24T14:11:07.080Z,101764.91
2023-05-24T14:16:03.214Z,101778.53
2023-05-24T14:18:29.707Z,101773.34
2023-05-24T14:20:56.413Z,101777.47
2023-05-24T14:23:23.215Z,101780.44
2023-05-24T14:25:51.822Z,101784.03
2023-05-24T14:28:18.804Z,101789.59
2023-05-24T14:30:45.623Z,101782.13
2023-05-24T14:33:12.360Z,101789.50
2023-05-24T14:35:39.874Z,101790.59
2023-05-24T14:38:07.668Z,101787.59
2023-05-24T14:40:34.329Z,101794.94
2023-05-24T14:43:01.089Z,101789.19
2023-05-24T14:45:27.859Z,101787.56
2023-05-24T14:47:54.343Z,101779.41
2023-05-24T14:50:21.480Z,101775.13
2023-05-24T14:52:47.918Z,101780.63
2023-05-24T14:55:14.639Z,101774.06
2023-05-24T14:57:41.826Z,101768.03
2023-05-24T15:00:10.521Z,101778.44
2023-05-24T15:02:37.390Z,101774.88
2023-05-24T15:05:04.624Z,101778.16
2023-05-24T15:07:31.775Z,101776.81
2023-05-24T15:09:58.279Z,101786.69
2023-05-24T15:12:24.764Z,101780.66
2023-05-24T15:14:51.296Z,101786.41
2023-05-24T15:17:19.616Z,101775.66
2023-05-24T15:19:48.148Z,101783.31
2023-05-24T15:22:14.580Z,101775.88
2023-05-24T15:24:41.104Z,101781.59
2023-05-24T15:27:07.706Z,101785.09
2023-05-24T15:29:34.150Z,101779.66
2023-05-24T15:32:01.474Z,101778.81
2023-05-24T15:34:28.273Z,101774.09
2023-05-24T15:36:54.742Z,101790.19
2023-05-24T15:39:21.785Z,101779.69
2023-05-24T15:41:48.623Z,101783.31
2023-05-24T15:44:15.257Z,101786.50
2023-05-24T15:46:41.722Z,101791.53
2023-05-24T15:49:08.176Z,101789.91
2023-05-24T15:54:06.091Z,101795.69
2023-05-24T15:56:32.773Z,101791.03
2023-05-24T15:58:59.257Z,101792.13
2023-05-24T16:01:26.065Z,101790.44
2023-05-24T16:03:53.218Z,101791.44
2023-05-24T16:06:19.725Z,101789.69
2023-05-24T16:08:46.601Z,101787.94
2023-05-24T16:11:13.406Z,101789.94
2023-05-24T16:13:39.853Z,101787.50
2023-05-24T16:16:06.419Z,101788.34
2023-05-24T16:18:34.606Z,101787.31
2023-05-24T16:21:01.552Z,101788.47
2023-05-24T16:23:28.211Z,101783.31
2023-05-24T16:25:54.691Z,101789.91
2023-05-24T16:28:24.909Z,101786.88
2023-05-24T16:30:55.491Z,101793.44
2023-05-24T16:33:23.028Z,101791.81
2023-05-24T16:35:55.345Z,101776.19
2023-05-24T16:38:23.416Z,101783.28
2023-05-24T16:40:50.225Z,101781.09
2023-05-24T16:43:17.168Z,101780.03
2023-05-24T16:45:44.192Z,101783.34
2023-05-24T16:48:11.333Z,101773.22
2023-05-24T16:50:37.834Z,101780.06
2023-05-24T16:53:06.511Z,101777.56
2023-05-24T16:55:33.228Z,101780.59
2023-05-24T16:57:59.694Z,101776.78
2023-05-24T17:00:26.355Z,101770.22
2023-05-24T17:02:53.050Z,101774.31
2023-05-24T17:05:19.510Z,101782.81
2023-05-24T17:07:46.286Z,101777.63
2023-05-24T17:10:12.914Z,101779.81
2023-05-24T17:12:39.446Z,101774.31
2023-05-24T17:15:06.781Z,101782.81
2023-05-24T17:17:33.344Z,101783.66
2023-05-24T17:20:00.222Z,101785.31
2023-05-24T17:22:26.778Z,101789.69
2023-05-24T17:24:53.620Z,101787.75
2023-05-24T17:27:22.416Z,101787.75
2023-05-24T17:29:49.300Z,101792.69
2023-05-24T17:32:15.758Z,101784.47
2023-05-24T17:34:42.188Z,101784.47
2023-05-24T17:37:08.631Z,101785.03
2023-05-24T17:39:35.096Z,101782.56
2023-05-24T17:42:01.606Z,101796.50
2023-05-24T17:44:28.130Z,101803.88
2023-05-24T17:46:54.700Z,101794.84
2023-05-24T17:49:21.163Z,101800.84
2023-05-24T17:51:47.789Z,101802.50
2023-05-24T17:54:14.355Z,101799.22
2023-05-24T17:56:41.027Z,101807.94
2023-05-24T17:59:07.663Z,101810.66
2023-05-24T18:01:34.160Z,101812.81
2023-05-24T18:04:00.881Z,101809.81
2023-05-24T18:06:27.375Z,101806.50
2023-05-24T18:08:54.024Z,101813.09
2023-05-24T18:11:20.666Z,101817.75
2023-05-24T18:13:47.093Z,101809.75
2023-05-24T18:16:13.925Z,101819.84
2023-05-24T18:18:40.972Z,101816.56
2023-05-24T18:21:09.447Z,101812.72
2023-05-24T18:23:39.436Z,101812.97
2023-05-24T18:26:07.167Z,101810.25
2023-05-24T18:28:37.629Z,101811.03
2023-05-24T18:31:10.241Z,101814.34
2023-05-24T18:33:37.968Z,101813.22
2023-05-24T18:36:05.763Z,101822.75
2023-05-24T18:38:35.964Z,101819.44
2023-05-24T18:41:06.044Z,101818.66
2023-05-24T18:43:33.162Z,101813.19
2023-05-24T18:45:59.778Z,101816.47
2023-05-24T18:48:26.665Z,101815.13
2023-05-24T18:50:53.891Z,101813.72
2023-05-24T18:53:20.534Z,101816.72
2023-05-24T18:55:47.567Z,101818.06
2023-05-24T18:58:14.680Z,101820.53
2023-05-24T19:00:41.269Z,101824.31
2023-05-24T19:03:10.806Z,101829.50
2023-05-24T19:05:39.468Z,101826.22
2023-05-24T19:08:07.439Z,101829.72
2023-05-24T19:10:34.117Z,101838.16
2023-05-24T19:13:01.131Z,101841.66
2023-05-24T19:15:28.204Z,101840.56
2023-05-24T19:17:55.694Z,101846.78
2023-05-24T19:20:22.222Z,101842.19
2023-05-24T19:22:48.912Z,101848.72
2023-05-24T19:25:15.474Z,101845.09
2023-05-24T19:27:54.731Z,101844.53
2023-05-24T19:30:25.544Z,101847.22
2023-05-24T19:32:52.183Z,101848.28
2023-05-24T19:35:18.677Z,101857.56
2023-05-24T19:37:45.228Z,101857.00
2023-05-24T19:40:11.857Z,101849.59
2023-05-24T19:42:38.471Z,101871.41
2023-05-24T19:45:05.532Z,101875.19
2023-05-24T19:47:32.133Z,101869.13
2023-05-24T19:49:58.609Z,101874.00
2023-05-24T19:52:25.046Z,101877.19
2023-05-24T19:54:51.636Z,101874.72
2023-05-24T19:57:18.140Z,101881.22
2023-05-24T19:59:44.649Z,101881.44
2023-05-24T20:02:11.093Z,101882.72
2023-05-24T20:04:41.798Z,101883.16
2023-05-24T20:07:08.869Z,101886.41
2023-05-24T20:09:35.814Z,101889.66
2023-05-24T20:12:02.726Z,101892.97
2023-05-24T20:14:31.354Z,101895.31
2023-05-24T20:16:58.684Z,101893.28
2023-05-24T20:19:26.196Z,101898.94
2023-05-24T20:21:52.837Z,101897.09
2023-05-24T20:24:19.499Z,101905.50
2023-05-24T20:26:46.094Z,101905.13
2023-05-24T20:29:12.639Z,101902.34
2023-05-24T20:31:39.162Z,101904.94
2023-05-24T20:34:05.716Z,101905.19
2023-05-24T20:36:33.127Z,101908.03
2023-05-24T20:38:59.687Z,101910.94
2023-05-24T20:41:26.652Z,101910.22
2023-05-24T20:43:53.206Z,101912.94
2023-05-24T20:46:19.782Z,101914.28
2023-05-24T20:48:46.709Z,101911.47
2023-05-24T20:51:13.206Z,101907.34
2023-05-24T20:53:40.172Z,101910.81
2023-05-24T20:56:06.909Z,101910.97
2023-05-24T20:58:33.353Z,101913.97
2023-05-24T21:01:00.046Z,101910.00
2023-05-24T21:03:27.539Z,101912.41
2023-05-24T21:05:54.315Z,101919.75
2023-05-24T21:08:21.570Z,101925.69
2023-05-24T21:10:48.114Z,101929.94
2023-05-24T21:13:14.739Z,101925.69
2023-05-24T21:15:43.134Z,101935.38
2023-05-24T21:18:11.904Z,101937.44
2023-05-24T21:20:38.445Z,101935.13
2023-05-24T21:23:05.057Z,101944.94
2023-05-24T21:25:31.645Z,101948.16
2023-05-24T21:27:58.429Z,101956.41
2023-05-24T21:30:24.899Z,101957.22
2023-05-24T21:32:51.369Z,101952.03
2023-05-24T21:35:18.095Z,101959.84
2023-05-24T21:37:44.541Z,101964.16
2023-05-24T21:40:11.382Z,101964.03
2023-05-24T21:42:37.892Z,101960.28
2023-05-24T21:45:04.738Z,101963.72
2023-05-24T21:47:31.286Z,101961.75
2023-05-24T21:49:57.763Z,101970.38
2023-05-24T21:52:24.410Z,101976.53
2023-05-24T21:54:51.040Z,101978.06
2023-05-24T21:57:17.469Z,101983.41
2023-05-24T21:59:43.994Z,101979.41
2023-05-24T22:02:10.451Z,101985.31
2023-05-24T22:04:36.914Z,101990.75
2023-05-24T22:07:03.421Z,101987.34
2023-05-24T22:09:31.072Z,101981.91
2023-05-24T22:11:57.555Z,101983.94
2023-05-24T22:14:24.443Z,101986.06
2023-05-24T22:16:51.169Z,101997.16
2023-05-24T22:19:25.289Z,101999.44
2023-05-24T22:21:59.551Z,101995.78
2023-05-24T22:24:26.951Z,101998.50
2023-05-24T22:26:53.745Z,102005.81
2023-05-24T22:29:20.259Z,101994.94
2023-05-24T22:31:46.924Z,102004.16
2023-05-24T22:34:13.534Z,102000.88
2023-05-24T22:36:40.042Z,102004.78
2023-05-24T22:39:07.145Z,101997.81
2023-05-24T22:41:33.669Z,101999.94
2023-05-24T22:44:00.197Z,102004.53
2023-05-24T22:46:30.006Z,102007.16
2023-05-24T22:48:57.959Z,102007.38
2023-05-24T22:51:24.874Z,102004.78
2023-05-24T22:53:52.526Z,102013.16
2023-05-24T22:56:19.342Z,102006.81
2023-05-24T22:58:45.937Z,101996.53
2023-05-24T23:01:12.389Z,102001.09
2023-05-24T23:03:38.910Z,102004.56
2023-05-24T23:06:05.517Z,102009.00
2023-05-24T23:08:32.338Z,102010.78
2023-05-24T23:11:04.599Z,102005.47
2023-05-24T23:13:33.133Z,102008.19
2023-05-24T23:16:00.052Z,102005.25
2023-05-24T23:18:28.131Z,102001.72
2023-05-24T23:20:55.894Z,102001.44
2023-05-24T23:23:22.954Z,102016.44
2023-05-24T23:25:53.261Z,102021.59
2023-05-24T23:28:19.784Z,102020.72
2023-05-24T23:30:46.324Z,102014.69
2023-05-24T23:33:13.198Z,102009.97
2023-05-24T23:35:39.937Z,102017.50
2023-05-24T23:38:06.470Z,102007.84
2023-05-24T23:40:33.781Z,102014.09
2023-05-24T23:43:00.581Z,102016.16
2023-05-24T23:45:27.364Z,102014.09
2023-05-24T23:47:54.065Z,102020.69
2023-05-24T23:50:22.392Z,102023.75
2023-05-24T23:52:49.270Z,102018.97
2023-05-24T23:55:15.962Z,102023.31
2023-05-24T23:57:42.721Z,102023.75
